createdAt,value
2022-10-30T00:01:59.070Z,2.45
2022-10-30T00:04:26.925Z,2.60
2022-10-30T00:06:54.268Z,2.70
2022-10-30T00:09:33.629Z,2.60
2022-10-30T00:12:01.078Z,2.80
2022-10-30T00:14:28.407Z,2.90
2022-10-30T00:16:55.753Z,2.67
2022-10-30T00:19:23.208Z,2.17
2022-10-30T00:24:29.358Z,2.63
2022-10-30T00:26:56.717Z,2.33
2022-10-30T00:29:25.349Z,2.80
2022-10-30T00:31:54.069Z,2.60
2022-10-30T00:34:21.606Z,2.55
2022-10-30T00:36:48.999Z,2.60
2022-10-30T00:39:16.958Z,2.40
2022-10-30T00:41:46.125Z,2.25
2022-10-30T00:44:37.399Z,2.35
2022-10-30T00:47:13.010Z,2.40
2022-10-30T00:49:51.295Z,2.58
2022-10-30T00:52:20.982Z,2.47
2022-10-30T00:54:48.446Z,2.47
2022-10-30T00:57:16.079Z,2.35
2022-10-30T00:59:46.199Z,2.55
2022-10-30T01:02:14.179Z,2.53
2022-10-30T01:04:44.600Z,2.58
2022-10-30T01:07:27.964Z,2.40
2022-10-30T01:09:56.238Z,2.80
2022-10-30T01:15:09.120Z,2.15
2022-10-30T01:20:44.126Z,2.72
2022-10-30T01:29:07.350Z,2.33
2022-10-30T01:39:53.277Z,3.08
2022-10-30T01:48:44.717Z,2.85
2022-10-30T01:51:41.706Z,3.10
2022-10-30T02:07:43.246Z,3.38
2022-10-30T02:10:12.557Z,3.85
2022-10-30T02:12:40.323Z,2.80
2022-10-30T02:15:11.957Z,3.17
2022-10-30T02:17:40.887Z,3.08
2022-10-30T02:20:15.253Z,3.33
2022-10-30T02:22:42.744Z,3.40
2022-10-30T02:25:10.639Z,3.22
2022-10-30T02:27:39.430Z,3.38
2022-10-30T02:30:23.965Z,3.80
2022-10-30T02:32:51.320Z,3.55
2022-10-30T02:35:18.806Z,3.90
2022-10-30T02:37:49.106Z,3.67
2022-10-30T02:40:28.370Z,3.55
2022-10-30T02:42:57.367Z,3.67
2022-10-30T02:45:24.679Z,4.57
2022-10-30T02:47:52.086Z,3.75
2022-10-30T02:50:31.601Z,4.10
2022-10-30T02:53:00.581Z,4.13
2022-10-30T02:55:28.355Z,4.15
2022-10-30T02:57:55.752Z,4.40
2022-10-30T03:00:23.125Z,3.28
2022-10-30T03:03:08.037Z,4.28
2022-10-30T03:05:35.372Z,4.70
2022-10-30T03:08:14.856Z,3.78
2022-10-30T03:10:54.490Z,3.75
2022-10-30T03:13:21.919Z,3.95
2022-10-30T03:15:49.363Z,4.28
2022-10-30T03:18:28.666Z,3.78
2022-10-30T03:20:58.344Z,3.47
2022-10-30T03:23:26.063Z,3.17
2022-10-30T03:25:56.040Z,3.53
2022-10-30T03:28:28.438Z,2.90
2022-10-30T03:31:01.209Z,3.60
2022-10-30T03:33:29.254Z,3.42
2022-10-30T03:35:58.181Z,2.88
2022-10-30T03:38:26.077Z,2.58
2022-10-30T03:40:54.361Z,2.75
2022-10-30T03:43:22.002Z,2.63
2022-10-30T03:45:51.394Z,2.92
2022-10-30T03:48:20.368Z,2.90
2022-10-30T03:50:48.100Z,2.10
2022-10-30T03:53:16.840Z,2.50
2022-10-30T03:55:44.275Z,2.13
2022-10-30T03:58:12.915Z,2.65
2022-10-30T04:00:41.203Z,2.33
2022-10-30T04:03:10.433Z,2.50
2022-10-30T04:05:55.555Z,2.85
2022-10-30T04:08:23.122Z,2.20
2022-10-30T04:11:02.465Z,2.40
2022-10-30T04:13:42.011Z,2.55
2022-10-30T04:18:54.352Z,2.35
2022-10-30T04:21:22.657Z,2.15
2022-10-30T04:23:50.077Z,2.30
2022-10-30T04:26:20.208Z,2.03
2022-10-30T04:28:48.885Z,2.10
2022-10-30T04:31:16.236Z,1.95
2022-10-30T04:33:44.430Z,2.38
2022-10-30T04:36:11.891Z,2.13
2022-10-30T04:38:39.241Z,2.03
2022-10-30T04:41:10.592Z,1.92
2022-10-30T04:46:17.523Z,1.10
2022-10-30T04:48:45.409Z,1.90
2022-10-30T04:51:25.370Z,1.70
2022-10-30T04:54:06.314Z,2.65
2022-10-30T04:56:33.881Z,1.67
2022-10-30T05:04:31.567Z,1.17
2022-10-30T05:07:11.284Z,1.30
2022-10-30T05:09:38.693Z,1.30
2022-10-30T05:12:06.315Z,1.45
2022-10-30T05:14:41.044Z,1.02
2022-10-30T05:17:09.307Z,1.40
2022-10-30T05:19:48.996Z,1.17
2022-10-30T05:22:28.962Z,0.93
2022-10-30T05:24:56.306Z,0.93
2022-10-30T05:27:36.004Z,0.75
2022-10-30T05:30:03.715Z,0.90
2022-10-30T05:32:31.239Z,0.70
2022-10-30T05:34:59.162Z,0.75
2022-10-30T05:37:26.537Z,0.77
2022-10-30T05:42:45.859Z,0.80
2022-10-30T05:45:14.114Z,0.73
2022-10-30T05:47:57.277Z,0.47
2022-10-30T05:50:26.518Z,0.38
2022-10-30T05:53:11.963Z,0.60
2022-10-30T05:55:52.513Z,0.70
2022-10-30T05:58:22.034Z,0.50
2022-10-30T06:00:50.549Z,0.82
2022-10-30T06:06:14.199Z,0.70
2022-10-30T06:08:41.519Z,0.60
2022-10-30T06:11:25.307Z,0.47
2022-10-30T06:13:55.656Z,0.52
2022-10-30T06:16:35.352Z,0.70
2022-10-30T06:22:14.720Z,0.70
2022-10-30T06:24:48.243Z,0.43
2022-10-30T06:27:24.483Z,0.50
2022-10-30T06:29:55.064Z,0.80
2022-10-30T06:32:23.052Z,0.43
2022-10-30T06:34:50.828Z,0.52
2022-10-30T06:37:18.924Z,0.40
2022-10-30T06:39:47.048Z,0.50
2022-10-30T06:42:34.240Z,0.95
2022-10-30T06:45:08.499Z,0.63
2022-10-30T06:47:37.010Z,0.57
2022-10-30T06:50:06.556Z,0.50
2022-10-30T06:52:34.075Z,0.47
2022-10-30T06:55:15.733Z,0.40
2022-10-30T06:58:15.230Z,0.77
2022-10-30T07:00:51.118Z,0.73
2022-10-30T07:03:38.303Z,0.50
2022-10-30T07:06:05.932Z,0.40
2022-10-30T07:08:34.348Z,0.63
2022-10-30T07:11:01.781Z,0.77
2022-10-30T07:13:42.205Z,0.38
2022-10-30T07:16:26.722Z,0.30
2022-10-30T07:19:06.126Z,0.52
2022-10-30T07:21:34.841Z,0.65
2022-10-30T07:24:18.476Z,0.40
2022-10-30T07:27:05.797Z,0.30
2022-10-30T07:29:38.246Z,0.63
2022-10-30T07:32:25.071Z,0.30
2022-10-30T07:35:20.248Z,0.30
2022-10-30T07:38:11.604Z,0.52
2022-10-30T07:40:59.232Z,0.47
2022-10-30T07:43:41.471Z,0.47
2022-10-30T07:46:28.763Z,0.43
2022-10-30T07:49:16.098Z,0.30
2022-10-30T07:51:49.947Z,0.50
2022-10-30T07:54:17.955Z,0.50
2022-10-30T07:56:45.404Z,0.20
2022-10-30T08:02:37.913Z,0.20
2022-10-30T08:05:16.052Z,0.20
2022-10-30T08:08:03.245Z,0.50
2022-10-30T08:10:42.937Z,0.20
2022-10-30T08:13:10.949Z,0.20
2022-10-30T08:15:40.253Z,0.20
2022-10-30T08:18:08.146Z,0.10
2022-10-30T08:20:39.209Z,0.00
2022-10-30T08:25:51.569Z,0.10
2022-10-30T08:28:33.040Z,0.10
2022-10-30T08:31:03.534Z,1.55
2022-10-30T08:33:50.818Z,0.10
2022-10-30T08:36:31.358Z,0.10
2022-10-30T08:38:58.804Z,0.00
2022-10-30T08:41:46.166Z,0.08
2022-10-30T08:44:13.659Z,0.10
2022-10-30T08:47:00.831Z,0.20
2022-10-30T08:49:28.343Z,0.15
2022-10-30T08:51:58.554Z,0.15
2022-10-30T08:54:26.707Z,0.00
2022-10-30T08:56:55.232Z,0.10
2022-10-30T08:59:24.186Z,0.30
2022-10-30T09:01:54.261Z,0.32
2022-10-30T09:04:34.218Z,0.30
2022-10-30T09:07:21.751Z,0.20
2022-10-30T09:10:09.437Z,0.45
2022-10-30T09:12:49.860Z,0.10
2022-10-30T09:18:05.011Z,0.10
2022-10-30T09:20:33.001Z,0.15
2022-10-30T09:23:12.742Z,0.17
2022-10-30T09:25:40.380Z,0.15
2022-10-30T09:28:17.992Z,0.10
2022-10-30T09:31:05.368Z,0.20
2022-10-30T09:33:36.485Z,0.10
2022-10-30T09:36:35.830Z,0.10
2022-10-30T09:39:03.286Z,0.52
2022-10-30T09:53:07.897Z,0.20
2022-10-30T10:07:03.563Z,0.22
2022-10-30T10:13:00.377Z,0.00
2022-10-30T10:15:51.759Z,0.10
2022-10-30T10:18:26.497Z,0.10
2022-10-30T10:21:11.486Z,0.10
2022-10-30T10:23:48.769Z,0.05
2022-10-30T10:26:28.194Z,0.10
2022-10-30T10:52:18.315Z,0.30
2022-10-30T10:54:52.450Z,0.10
2022-10-30T10:57:41.083Z,0.20
2022-10-30T11:03:00.741Z,0.30
2022-10-30T11:08:29.076Z,0.95
2022-10-30T11:10:59.941Z,0.20
2022-10-30T11:13:32.911Z,0.40
2022-10-30T11:21:53.473Z,0.30
2022-10-30T11:24:37.212Z,0.20
2022-10-30T11:30:06.429Z,0.10
2022-10-30T11:35:32.561Z,0.17
2022-10-30T11:38:21.476Z,0.17
2022-10-30T11:40:53.142Z,0.20
2022-10-30T11:45:51.511Z,0.10
2022-10-30T11:51:02.279Z,0.20
2022-10-30T11:53:36.723Z,0.35
2022-10-30T11:56:12.039Z,0.17
2022-10-30T11:58:58.162Z,0.70
2022-10-30T12:01:31.092Z,0.68
2022-10-30T12:04:14.861Z,0.35
2022-10-30T12:06:42.465Z,0.15
2022-10-30T12:12:04.319Z,0.20
2022-10-30T12:14:34.737Z,0.15
2022-10-30T12:17:02.084Z,0.20
2022-10-30T12:19:31.380Z,0.10
2022-10-30T12:21:59.116Z,0.10
2022-10-30T12:24:44.550Z,0.10
2022-10-30T12:27:21.426Z,0.10
2022-10-30T12:32:38.593Z,0.63
2022-10-30T12:35:19.055Z,0.03
2022-10-30T12:37:49.721Z,0.10
2022-10-30T12:43:24.564Z,0.20
2022-10-30T12:45:56.462Z,0.20
2022-10-30T12:48:39.938Z,0.10
2022-10-30T12:51:24.091Z,0.10
2022-10-30T12:56:50.874Z,0.10
2022-10-30T13:02:50.058Z,0.30
2022-10-30T13:05:39.359Z,0.22
2022-10-30T13:08:32.518Z,0.20
2022-10-30T13:17:02.574Z,0.10
2022-10-30T13:19:30.063Z,0.20
2022-10-30T13:22:06.248Z,0.30
2022-10-30T13:25:08.845Z,0.47
2022-10-30T13:30:32.091Z,0.20
2022-10-30T13:52:38.104Z,0.30
2022-10-30T13:55:40.978Z,0.17
2022-10-30T14:04:05.580Z,0.40
2022-10-30T14:06:45.862Z,0.20
2022-10-30T14:09:26.896Z,0.30
2022-10-30T14:18:23.702Z,0.13
2022-10-30T14:20:52.948Z,0.10
2022-10-30T14:28:45.619Z,0.20
2022-10-30T14:31:32.794Z,0.10
2022-10-30T14:34:00.871Z,0.15
2022-10-30T14:45:03.611Z,0.32
2022-10-30T15:02:16.627Z,0.15
2022-10-30T15:05:17.334Z,0.30
2022-10-30T15:07:54.070Z,0.20
2022-10-30T15:15:50.960Z,0.30
2022-10-30T15:18:20.887Z,0.10
2022-10-30T15:20:53.344Z,0.30
2022-10-30T15:23:43.676Z,0.40
2022-10-30T15:26:21.327Z,0.50
2022-10-30T15:28:52.122Z,0.50
2022-10-30T15:31:36.512Z,0.30
2022-10-30T15:34:33.578Z,0.20
2022-10-30T15:42:58.106Z,0.10
2022-10-30T15:45:49.717Z,0.10
2022-10-30T15:48:43.284Z,0.00
2022-10-30T15:51:33.149Z,0.20
2022-10-30T15:54:23.907Z,0.17
2022-10-30T16:00:32.273Z,0.05
2022-10-30T16:06:12.502Z,0.30
2022-10-30T16:08:50.862Z,0.20
2022-10-30T16:11:30.140Z,0.20
2022-10-30T16:14:23.495Z,0.15
2022-10-30T16:17:03.579Z,0.20
2022-10-30T16:20:01.038Z,0.20
2022-10-30T16:23:05.919Z,0.10
2022-10-30T16:25:46.953Z,0.10
2022-10-30T16:28:27.115Z,0.17
2022-10-30T16:31:01.842Z,0.20
2022-10-30T16:33:37.760Z,0.20
2022-10-30T16:36:23.145Z,0.30
2022-10-30T16:38:54.423Z,0.35
2022-10-30T16:41:36.412Z,0.28
2022-10-30T16:44:28.192Z,1.00
2022-10-30T16:47:34.860Z,0.38
2022-10-30T16:50:14.682Z,0.30
2022-10-30T16:55:41.024Z,0.50
2022-10-30T16:58:16.259Z,0.60
2022-10-30T17:01:11.205Z,0.85
2022-10-30T17:03:52.319Z,0.70
2022-10-30T17:09:10.977Z,0.60
2022-10-30T17:11:48.779Z,1.00
2022-10-30T17:14:42.359Z,1.05
2022-10-30T17:17:23.706Z,1.10
2022-10-30T17:19:58.163Z,0.70
2022-10-30T17:22:39.424Z,0.80
2022-10-30T17:28:35.097Z,0.60
2022-10-30T17:36:41.908Z,0.70
2022-10-30T17:39:10.305Z,0.73
2022-10-30T17:41:39.151Z,1.20
2022-10-30T17:44:08.321Z,1.00
2022-10-30T17:46:36.385Z,0.65
2022-10-30T17:49:04.383Z,0.75
2022-10-30T17:51:32.836Z,0.40
2022-10-30T17:54:00.626Z,0.50
2022-10-30T17:56:44.201Z,0.75
2022-10-30T17:59:11.858Z,0.60
2022-10-30T18:01:39.783Z,0.60
2022-10-30T18:04:20.762Z,0.40
2022-10-30T18:09:37.001Z,0.30
2022-10-30T18:12:08.156Z,0.50
2022-10-30T18:14:36.478Z,0.32
2022-10-30T18:17:04.471Z,0.30
2022-10-30T18:19:32.769Z,0.47
2022-10-30T18:22:00.877Z,0.32
2022-10-30T18:24:29.770Z,0.50
2022-10-30T18:26:59.331Z,0.40
2022-10-30T18:29:28.226Z,0.30
2022-10-30T18:31:57.448Z,0.45
2022-10-30T18:34:38.917Z,0.20
2022-10-30T18:37:20.614Z,0.43
2022-10-30T18:39:52.195Z,0.45
2022-10-30T18:42:34.176Z,0.40
2022-10-30T18:45:05.230Z,0.40
2022-10-30T18:47:35.808Z,0.38
2022-10-30T18:50:05.211Z,0.30
2022-10-30T18:52:34.529Z,0.60
2022-10-30T18:55:17.556Z,0.40
2022-10-30T18:57:51.096Z,0.30
2022-10-30T19:00:26.517Z,0.50
2022-10-30T19:03:04.500Z,0.40
2022-10-30T19:05:46.008Z,0.55
2022-10-30T19:08:24.819Z,0.60
2022-10-30T19:11:07.285Z,0.50
2022-10-30T19:13:45.556Z,0.35
2022-10-30T19:16:27.024Z,0.30
2022-10-30T19:19:08.057Z,0.52
2022-10-30T19:21:57.795Z,0.22
2022-10-30T19:24:41.699Z,0.50
2022-10-30T19:27:32.108Z,0.40
2022-10-30T19:30:13.504Z,0.45
2022-10-30T19:32:50.707Z,0.20
2022-10-30T19:35:31.156Z,0.57
2022-10-30T19:38:16.299Z,0.55
2022-10-30T19:40:59.371Z,0.60
2022-10-30T19:43:47.073Z,0.30
2022-10-30T19:46:29.244Z,0.28
2022-10-30T19:49:21.118Z,0.30
2022-10-30T19:52:01.574Z,0.50
2022-10-30T19:54:39.946Z,0.30
2022-10-30T19:59:58.007Z,0.20
2022-10-30T20:03:01.826Z,0.28
2022-10-30T20:12:11.207Z,0.38
2022-10-30T20:34:58.463Z,0.52
2022-10-30T20:45:42.649Z,0.30
2022-10-30T20:59:22.278Z,0.15
